Junior — D5BZ4 — position and weather

sailwx.info

Track history (hours):
 
Tides and Currents Weather Stations Pressure Air Temp Water Temp Dewpoint Dewpoint Depression Visibility Wind Speed Wind Dir Waves Ship Positions

Junior

Last reported at 2018-Jul-16 20:52 UTC. Time now 2018-Jul-22 12:34 UTC.
Position N 01°17' E 103°23'.

Length 229 m; draft 8.8 m.

Type: Ship. MMSI: 636015637.

Date/timePositionNaut miles runAvg speedWind from/ knotsBaromVisibWave heightAir tempDewpointWater temp
2018-Jul-16 20:52N 01°17' E 103°23'513.1
2018-Jul-16 20:28N 01°14' E 103°27'713.1
2018-Jul-16 19:59N 01°12' E 103°34'612.0
2018-Jul-16 19:30N 01°11' E 103°39'611.8
2018-Jul-16 19:00N 01°08' E 103°45'611.4
2018-Jul-16 18:30N 01°11' E 103°49'712.7
2018-Jul-16 17:59N 01°14' E 103°55'4 7.7
2018-Jul-16 17:30N 01°17' E 103°58'0 0.1
2018-Jul-16 16:18N 01°17' E 103°58'0 0.0
2018-Jul-16 13:54N 01°17' E 103°58'0 0.1
2018-Jul-16 13:24N 01°17' E 103°58'0 0.0
2018-Jul-16 12:48N 01°17' E 103°58'0 0.1
2018-Jul-16 09:32N 01°17' E 103°58'0 0.0
2018-Jul-16 08:24N 01°17' E 103°58'0 0.0
2018-Jul-16 07:53N 01°17' E 103°58'0 0.0
2018-Jul-16 06:30N 01°17' E 103°58'0 0.0
2018-Jul-16 05:51N 01°17' E 103°58'0 0.0
2018-Jul-16 05:24N 01°17' E 103°58'0 0.0
2018-Jul-16 04:53N 01°17' E 103°58'0 0.0
2018-Jul-16 04:18N 01°17' E 103°58'0 0.0
2018-Jul-16 03:47N 01°17' E 103°58'0 0.0
2018-Jul-16 03:21N 01°17' E 103°58'0 0.0
2018-Jul-16 01:33N 01°17' E 103°58'0 0.0
2018-Jul-16 01:26N 01°17' E 103°58'0 0.0
2018-Jul-16 00:32N 01°17' E 103°58'0 0.0
2018-Jul-15 22:56N 01°17' E 103°58'0 0.0
2018-Jul-15 21:48N 01°17' E 103°58'0 0.0
2018-Jul-15 21:27N 01°17' E 103°58'0 0.0
2018-Jul-15 20:42N 01°17' E 103°58'0 0.1
2018-Jul-15 20:30N 01°17' E 103°58'0 0.0
2018-Jul-15 19:56N 01°17' E 103°58'0 0.0
2018-Jul-15 19:21N 01°17' E 103°58'0 0.0
2018-Jul-15 18:41N 01°17' E 103°58'0 0.0
2018-Jul-15 18:21N 01°17' E 103°58'0 0.2
2018-Jul-15 17:54N 01°16' E 103°58'0 0.2
2018-Jul-15 17:09N 01°16' E 103°58'0 0.1
2018-Jul-15 16:59N 01°16' E 103°58'0 0.1
2018-Jul-15 16:02N 01°16' E 103°58'0 0.1
2018-Jul-15 15:53N 01°16' E 103°58'0 0.0
2018-Jul-15 14:54N 01°17' E 103°58'0 0.0
2018-Jul-15 14:23N 01°17' E 103°58'0 0.0
2018-Jul-15 13:21N 01°16' E 103°58'0 0.1
2018-Jul-15 12:54N 01°17' E 103°58'0 0.1
2018-Jul-15 12:30N 01°17' E 103°58'0 0.1
2018-Jul-15 10:06N 01°17' E 103°58'0 0.2
2018-Jul-15 09:42N 01°17' E 103°58'0 0.0
2018-Jul-15 09:20N 01°17' E 103°58'0 0.0
2018-Jul-15 08:57N 01°17' E 103°58'0 0.0
2018-Jul-15 06:54N 01°17' E 103°58'0 0.0
2018-Jul-15 06:09N 01°17' E 103°58'0 0.2
2018-Jul-15 05:48N 01°17' E 103°58'0 0.0
2018-Jul-15 05:27N 01°17' E 103°58'0 0.0
2018-Jul-15 04:23N 01°17' E 103°58'0 0.1
2018-Jul-15 03:57N 01°17' E 103°58'0 0.0
2018-Jul-15 03:15N 01°17' E 103°58'0 0.0
2018-Jul-15 02:53N 01°17' E 103°58'0 0.0
2018-Jul-15 02:27N 01°17' E 103°58'0 0.1
2018-Jul-15 01:53N 01°17' E 103°58'0 0.0
2018-Jul-15 01:29N 01°17' E 103°58'0 0.0
2018-Jul-14 23:57N 01°17' E 103°58'0 0.0
2018-Jul-14 22:39N 01°17' E 103°58'0 0.0
2018-Jul-14 22:27N 01°17' E 103°58'0 0.1
2018-Jul-14 21:57N 01°17' E 103°58'0 0.0
2018-Jul-14 21:21N 01°17' E 103°58'0 0.1
2018-Jul-14 20:54N 01°17' E 103°58'0 0.0
2018-Jul-14 20:24N 01°17' E 103°58'0 0.0
2018-Jul-14 19:57N 01°17' E 103°58'0 0.0
2018-Jul-14 19:23N 01°17' E 103°58'0 0.0
2018-Jul-14 18:59N 01°17' E 103°58'1 1.2
2018-Jul-14 18:28N 01°16' E 103°59'3 6.8
2018-Jul-14 18:01N 01°16' E 104°02'5 8.2
2018-Jul-14 17:27N 01°16' E 104°06'4 7.8
2018-Jul-14 16:54N 01°17' E 104°11'4 8.2
2018-Jul-14 16:26N 01°18' E 104°14'  
Track history (hours):
 
Tides and Currents Weather Stations Pressure Air Temp Water Temp Dewpoint Dewpoint Depression Visibility Wind Speed Wind Dir Waves Ship Positions

Junior

Last reported at 2018-Jul-16 20:52 UTC. Time now 2018-Jul-22 12:34 UTC.
Position N 01°17' E 103°23'.

Length 229 m; draft 8.8 m.

Type: Ship. MMSI: 636015637.

Date/timePositionNaut miles runAvg speedWind from/ knotsBaromVisibWave heightAir tempDewpointWater temp
2018-Jul-16 20:52N 01°17' E 103°23'513.1
2018-Jul-16 20:28N 01°14' E 103°27'713.1
2018-Jul-16 19:59N 01°12' E 103°34'612.0
2018-Jul-16 19:30N 01°11' E 103°39'611.8
2018-Jul-16 19:00N 01°08' E 103°45'611.4
2018-Jul-16 18:30N 01°11' E 103°49'712.7
2018-Jul-16 17:59N 01°14' E 103°55'4 7.7
2018-Jul-16 17:30N 01°17' E 103°58'0 0.1
2018-Jul-16 16:18N 01°17' E 103°58'0 0.0
2018-Jul-16 13:54N 01°17' E 103°58'0 0.1
2018-Jul-16 13:24N 01°17' E 103°58'0 0.0
2018-Jul-16 12:48N 01°17' E 103°58'0 0.1
2018-Jul-16 09:32N 01°17' E 103°58'0 0.0
2018-Jul-16 08:24N 01°17' E 103°58'0 0.0
2018-Jul-16 07:53N 01°17' E 103°58'0 0.0
2018-Jul-16 06:30N 01°17' E 103°58'0 0.0
2018-Jul-16 05:51N 01°17' E 103°58'0 0.0
2018-Jul-16 05:24N 01°17' E 103°58'0 0.0
2018-Jul-16 04:53N 01°17' E 103°58'0 0.0
2018-Jul-16 04:18N 01°17' E 103°58'0 0.0
2018-Jul-16 03:47N 01°17' E 103°58'0 0.0
2018-Jul-16 03:21N 01°17' E 103°58'0 0.0
2018-Jul-16 01:33N 01°17' E 103°58'0 0.0
2018-Jul-16 01:26N 01°17' E 103°58'0 0.0
2018-Jul-16 00:32N 01°17' E 103°58'0 0.0
2018-Jul-15 22:56N 01°17' E 103°58'0 0.0
2018-Jul-15 21:48N 01°17' E 103°58'0 0.0
2018-Jul-15 21:27N 01°17' E 103°58'0 0.0
2018-Jul-15 20:42N 01°17' E 103°58'0 0.1
2018-Jul-15 20:30N 01°17' E 103°58'0 0.0
2018-Jul-15 19:56N 01°17' E 103°58'0 0.0
2018-Jul-15 19:21N 01°17' E 103°58'0 0.0
2018-Jul-15 18:41N 01°17' E 103°58'0 0.0
2018-Jul-15 18:21N 01°17' E 103°58'0 0.2
2018-Jul-15 17:54N 01°16' E 103°58'0 0.2
2018-Jul-15 17:09N 01°16' E 103°58'0 0.1
2018-Jul-15 16:59N 01°16' E 103°58'0 0.1
2018-Jul-15 16:02N 01°16' E 103°58'0 0.1
2018-Jul-15 15:53N 01°16' E 103°58'0 0.0
2018-Jul-15 14:54N 01°17' E 103°58'0 0.0
2018-Jul-15 14:23N 01°17' E 103°58'0 0.0
2018-Jul-15 13:21N 01°16' E 103°58'0 0.1
2018-Jul-15 12:54N 01°17' E 103°58'0 0.1
2018-Jul-15 12:30N 01°17' E 103°58'0 0.1
2018-Jul-15 10:06N 01°17' E 103°58'0 0.2
2018-Jul-15 09:42N 01°17' E 103°58'0 0.0
2018-Jul-15 09:20N 01°17' E 103°58'0 0.0
2018-Jul-15 08:57N 01°17' E 103°58'0 0.0
2018-Jul-15 06:54N 01°17' E 103°58'0 0.0
2018-Jul-15 06:09N 01°17' E 103°58'0 0.2
2018-Jul-15 05:48N 01°17' E 103°58'0 0.0
2018-Jul-15 05:27N 01°17' E 103°58'0 0.0
2018-Jul-15 04:23N 01°17' E 103°58'0 0.1
2018-Jul-15 03:57N 01°17' E 103°58'0 0.0
2018-Jul-15 03:15N 01°17' E 103°58'0 0.0
2018-Jul-15 02:53N 01°17' E 103°58'0 0.0
2018-Jul-15 02:27N 01°17' E 103°58'0 0.1
2018-Jul-15 01:53N 01°17' E 103°58'0 0.0
2018-Jul-15 01:29N 01°17' E 103°58'0 0.0
2018-Jul-14 23:57N 01°17' E 103°58'0 0.0
2018-Jul-14 22:39N 01°17' E 103°58'0 0.0
2018-Jul-14 22:27N 01°17' E 103°58'0 0.1
2018-Jul-14 21:57N 01°17' E 103°58'0 0.0
2018-Jul-14 21:21N 01°17' E 103°58'0 0.1
2018-Jul-14 20:54N 01°17' E 103°58'0 0.0
2018-Jul-14 20:24N 01°17' E 103°58'0 0.0
2018-Jul-14 19:57N 01°17' E 103°58'0 0.0
2018-Jul-14 19:23N 01°17' E 103°58'0 0.0
2018-Jul-14 18:59N 01°17' E 103°58'1 1.2
2018-Jul-14 18:28N 01°16' E 103°59'3 6.8
2018-Jul-14 18:01N 01°16' E 104°02'5 8.2
2018-Jul-14 17:27N 01°16' E 104°06'4 7.8
2018-Jul-14 16:54N 01°17' E 104°11'4 8.2
2018-Jul-14 16:26N 01°18' E 104°14'  

Dump ship's entire track history